Swift Arrow — WAFK — position and weather

sailwx.info

Track history (hours):
 
Tides and Currents Weather Stations Pressure Air Temp Water Temp Dewpoint Dewpoint Depression Visibility Wind Speed Wind Dir Waves Ship Positions

Swift Arrow

Owner: ARROW LAUNCH SERVICE INC, Port Angeles, WA. More information available from US FCC via Universal Licensing System and Coast Guard Vessel Documentation Center.

Last reported at 2015-Apr-28 06:21 UTC. Time now 2015-Apr-28 10:20 UTC.
Position N 48°31' W 122°36'.

Type: Port tender. MMSI: 369021000.

Date/timePositionNaut miles runAvg speedWind from/ knotsBaromVisibWave heightAir tempDewpointWater temp
2015-Apr-28 06:21N 48°31' W 122°36'7 8.8
2015-Apr-28 05:33N 48°37' W 122°32'7 6.8
2015-Apr-28 04:33N 48°31' W 122°36'1 1.5
2015-Apr-28 03:33N 48°31' W 122°35'3 3.3
2015-Apr-28 02:33N 48°35' W 122°34'4 4.2
2015-Apr-28 01:33N 48°31' W 122°36'0 0.0
2015-Apr-28 00:33N 48°31' W 122°36'0 0.0
2015-Apr-27 23:33N 48°31' W 122°36'0 0.0
2015-Apr-27 22:33N 48°31' W 122°36'0 0.0
2015-Apr-27 21:33N 48°31' W 122°36'1 0.7
2015-Apr-27 20:33N 48°31' W 122°35'2 1.5
2015-Apr-27 19:33N 48°32' W 122°34'2 0.2
2015-Apr-27 09:33N 48°31' W 122°36'0 0.0
2015-Apr-27 08:33N 48°31' W 122°36'2 0.2
2015-Apr-26 20:33N 48°32' W 122°34'1 1.4
2015-Apr-26 19:33N 48°31' W 122°36'1 0.6
2015-Apr-26 18:33N 48°31' W 122°36'0 0.0
2015-Apr-26 17:33N 48°31' W 122°36'0 0.0
2015-Apr-26 16:33N 48°31' W 122°36'2 1.9
2015-Apr-26 15:33N 48°31' W 122°34'2 2.0
2015-Apr-26 14:33N 48°31' W 122°36'0 0.0
2015-Apr-25 23:14N 48°31' W 122°36'2 3.5
2015-Apr-25 22:33N 48°33' W 122°34'0 0.1
2015-Apr-25 17:33N 48°33' W 122°34'3 2.8
2015-Apr-25 16:33N 48°31' W 122°36'2 0.1
2015-Apr-25 02:33N 48°31' W 122°34'1 0.8
2015-Apr-25 01:33N 48°31' W 122°35'1 0.8
2015-Apr-25 00:33N 48°31' W 122°37'1 1.3
2015-Apr-24 23:34N 48°31' W 122°35'1 0.8
2015-Apr-24 22:33N 48°31' W 122°36'0 0.4
2015-Apr-24 21:33N 48°31' W 122°36'0 0.4
2015-Apr-24 20:33N 48°31' W 122°36'0 0.0
2015-Apr-24 19:33N 48°31' W 122°36'0 0.2
2015-Apr-24 18:33N 48°31' W 122°36'0 0.2
2015-Apr-24 17:33N 48°31' W 122°36'5 5.0
2015-Apr-24 16:33N 48°35' W 122°34'5 4.9
2015-Apr-24 15:33N 48°31' W 122°36'0 0.4
2015-Apr-24 14:33N 48°31' W 122°36'0 0.0
2015-Apr-24 06:06N 48°31' W 122°36'0 0.0
2015-Apr-24 05:33N 48°31' W 122°36'0 0.0
2015-Apr-24 04:33N 48°31' W 122°36'0 0.0
2015-Apr-24 03:33N 48°31' W 122°37'0 0.2
2015-Apr-24 02:33N 48°31' W 122°36'0 0.1
2015-Apr-24 01:33N 48°31' W 122°36'0 0.0
2015-Apr-24 00:33N 48°31' W 122°36'0 0.0
2015-Apr-23 23:33N 48°31' W 122°36'1 0.7
2015-Apr-23 22:33N 48°31' W 122°35'1 0.7
2015-Apr-23 21:33N 48°31' W 122°36'0 0.0
2015-Apr-23 20:33N 48°31' W 122°36'1 1.4
2015-Apr-23 19:33N 48°31' W 122°34'1 1.4
2015-Apr-23 18:33N 48°31' W 122°36'0 0.1
2015-Apr-23 17:33N 48°31' W 122°37'5 5.4
2015-Apr-23 16:33N 48°35' W 122°33'5 4.6
2015-Apr-23 15:34N 48°31' W 122°34'1 1.4
2015-Apr-23 14:33N 48°31' W 122°36'0 0.0
2015-Apr-23 11:33N 48°31' W 122°36'0 0.0
2015-Apr-23 10:33N 48°31' W 122°36'0 0.0
2015-Apr-23 09:33N 48°31' W 122°36'0 0.0
2015-Apr-23 08:33N 48°31' W 122°36'0 0.0
2015-Apr-23 07:33N 48°31' W 122°36'0 0.0
2015-Apr-23 06:33N 48°31' W 122°36'6 6.1
2015-Apr-23 05:32N 48°36' W 122°33'5 5.3
2015-Apr-23 04:33N 48°31' W 122°35'1 1.3
2015-Apr-23 03:34N 48°31' W 122°37'0 0.0
2015-Apr-23 02:34N 48°31' W 122°36'0 0.0
2015-Apr-23 01:33N 48°31' W 122°36'0 0.0
2015-Apr-23 00:34N 48°31' W 122°36'0 0.0
2015-Apr-22 23:34N 48°31' W 122°36'0 0.0
2015-Apr-22 22:34N 48°31' W 122°36'0 0.0
2015-Apr-22 21:34N 48°31' W 122°36'0 0.0
2015-Apr-22 20:33N 48°31' W 122°36'0 0.1
2015-Apr-22 19:33N 48°31' W 122°37'0 0.0
2015-Apr-22 18:34N 48°31' W 122°37'0 0.0
2015-Apr-22 17:34N 48°31' W 122°37'0 0.1
2015-Apr-22 16:33N 48°31' W 122°36'0 0.0
2015-Apr-22 15:33N 48°31' W 122°36'0 0.0
2015-Apr-22 14:33N 48°31' W 122°36'1 1.3
2015-Apr-22 13:33N 48°31' W 122°35'1 0.1
2015-Apr-22 01:26N 48°31' W 122°37'0 0.0
2015-Apr-22 00:33N 48°31' W 122°36'1 1.1
2015-Apr-21 23:33N 48°31' W 122°35'1 0.7
2015-Apr-21 22:33N 48°31' W 122°36'0 0.4
2015-Apr-21 21:33N 48°31' W 122°36'0 0.0
2015-Apr-21 20:33N 48°31' W 122°36'0 0.2
2015-Apr-21 19:33N 48°31' W 122°36'0 0.2
2015-Apr-21 18:33N 48°31' W 122°36'0 0.0
2015-Apr-21 17:33N 48°31' W 122°36'0 0.0
2015-Apr-21 16:33N 48°31' W 122°36'0 0.0
2015-Apr-21 15:33N 48°31' W 122°36'0 0.2
2015-Apr-21 14:34N 48°31' W 122°36'0 0.2
2015-Apr-21 13:34N 48°31' W 122°36'5 5.2
2015-Apr-21 12:32N 48°35' W 122°33'5 5.4
2015-Apr-21 11:33N 48°31' W 122°36'0 0.0
2015-Apr-21 10:33N 48°31' W 122°36'0 0.0
2015-Apr-21 09:33N 48°31' W 122°36'0 0.0
2015-Apr-21 08:33N 48°31' W 122°36'0 0.0
2015-Apr-21 07:33N 48°31' W 122°37'0 0.0
2015-Apr-21 06:33N 48°31' W 122°36'0 0.0
2015-Apr-21 05:33N 48°31' W 122°36'0 0.0
2015-Apr-21 04:33N 48°31' W 122°36'0 0.0
2015-Apr-21 03:33N 48°31' W 122°36'0 0.2
2015-Apr-21 02:34N 48°31' W 122°36'0 0.2
2015-Apr-21 01:33N 48°31' W 122°36'0 0.0
2015-Apr-21 00:34N 48°31' W 122°36'1 0.9
2015-Apr-20 23:33N 48°31' W 122°35'1 0.7
2015-Apr-20 22:33N 48°31' W 122°36'0 0.3
2015-Apr-20 21:33N 48°31' W 122°36'0 0.0
2015-Apr-20 20:33N 48°31' W 122°36'1 1.5
2015-Apr-20 19:33N 48°31' W 122°34'1 1.3
2015-Apr-20 18:33N 48°31' W 122°36'0 0.2
2015-Apr-20 17:34N 48°31' W 122°36'0 0.0
2015-Apr-20 16:34N 48°31' W 122°36'0 0.2
2015-Apr-20 15:33N 48°31' W 122°36'0 0.2
2015-Apr-20 14:33N 48°31' W 122°36'0 0.1
2015-Apr-20 11:31N 48°31' W 122°36'2 2.1
2015-Apr-20 10:34N 48°32' W 122°34'2 2.0
2015-Apr-20 09:34N 48°31' W 122°36'0 0.0
2015-Apr-20 08:33N 48°31' W 122°37'0 0.0
2015-Apr-20 07:34N 48°31' W 122°37'0 0.0
2015-Apr-20 06:34N 48°31' W 122°36'0 0.0
2015-Apr-20 05:33N 48°31' W 122°36'0 0.0
2015-Apr-20 04:32N 48°31' W 122°36'0 0.0
2015-Apr-20 03:33N 48°31' W 122°36'7 6.9
2015-Apr-20 02:33N 48°37' W 122°32'7 7.0
2015-Apr-20 01:33N 48°31' W 122°37'0 0.0
2015-Apr-20 00:33N 48°31' W 122°36'0 0.4
2015-Apr-19 23:33N 48°31' W 122°36'0 0.4
2015-Apr-19 22:32N 48°31' W 122°36'0 0.0
2015-Apr-19 21:33N 48°31' W 122°36'2 1.5
2015-Apr-19 20:33N 48°31' W 122°34'3 3.0
2015-Apr-19 19:33N 48°34' W 122°34'3 3.3
2015-Apr-19 18:33N 48°31' W 122°36'0 0.0
2015-Apr-19 17:33N 48°31' W 122°36'0 0.0
2015-Apr-19 16:33N 48°31' W 122°36'5 4.9
2015-Apr-19 15:33N 48°35' W 122°34'5 4.8
2015-Apr-19 14:33N 48°31' W 122°36'0 0.0
2015-Apr-19 10:33N 48°31' W 122°36'0 0.1
2015-Apr-19 09:33N 48°31' W 122°36'0 0.0
2015-Apr-19 08:33N 48°31' W 122°36'0 0.0
2015-Apr-19 07:33N 48°31' W 122°36'0 0.0
2015-Apr-19 06:33N 48°31' W 122°36'2 1.7
2015-Apr-19 05:33N 48°31' W 122°34'2 1.7
2015-Apr-19 04:33N 48°31' W 122°36'1 1.5
2015-Apr-19 03:34N 48°31' W 122°34'1 1.1
2015-Apr-19 02:33N 48°31' W 122°36'1 0.6
2015-Apr-19 01:34N 48°31' W 122°35'1 0.9
2015-Apr-19 00:33N 48°31' W 122°36'0 0.4
2015-Apr-18 23:33N 48°31' W 122°36'0 0.0
2015-Apr-18 22:33N 48°31' W 122°36'0 0.1
2015-Apr-18 21:33N 48°31' W 122°36'0 0.2
2015-Apr-18 20:33N 48°31' W 122°36'1 1.5
2015-Apr-18 19:33N 48°31' W 122°34'4 3.8
2015-Apr-18 18:33N 48°35' W 122°34'4 4.2
2015-Apr-18 17:33N 48°31' W 122°36'0 0.0
2015-Apr-18 16:33N 48°31' W 122°36'2 1.6
2015-Apr-18 15:33N 48°31' W 122°34'1 1.2
2015-Apr-18 14:33N 48°31' W 122°36'0 0.1
2015-Apr-18 10:33N 48°31' W 122°36'0 0.0
2015-Apr-18 09:33N 48°31' W 122°36'0 0.1
2015-Apr-18 08:33N 48°31' W 122°37'0 0.0
2015-Apr-18 07:33N 48°31' W 122°36'0 0.0
2015-Apr-18 06:33N 48°31' W 122°36'  
Track history (hours):
 
Tides and Currents Weather Stations Pressure Air Temp Water Temp Dewpoint Dewpoint Depression Visibility Wind Speed Wind Dir Waves Ship Positions

Swift Arrow

Owner: ARROW LAUNCH SERVICE INC, Port Angeles, WA. More information available from US FCC via Universal Licensing System and Coast Guard Vessel Documentation Center.

Last reported at 2015-Apr-28 06:21 UTC. Time now 2015-Apr-28 10:20 UTC.
Position N 48°31' W 122°36'.

Type: Port tender. MMSI: 369021000.

Date/timePositionNaut miles runAvg speedWind from/ knotsBaromVisibWave heightAir tempDewpointWater temp
2015-Apr-28 06:21N 48°31' W 122°36'7 8.8
2015-Apr-28 05:33N 48°37' W 122°32'7 6.8
2015-Apr-28 04:33N 48°31' W 122°36'1 1.5
2015-Apr-28 03:33N 48°31' W 122°35'3 3.3
2015-Apr-28 02:33N 48°35' W 122°34'4 4.2
2015-Apr-28 01:33N 48°31' W 122°36'0 0.0
2015-Apr-28 00:33N 48°31' W 122°36'0 0.0
2015-Apr-27 23:33N 48°31' W 122°36'0 0.0
2015-Apr-27 22:33N 48°31' W 122°36'0 0.0
2015-Apr-27 21:33N 48°31' W 122°36'1 0.7
2015-Apr-27 20:33N 48°31' W 122°35'2 1.5
2015-Apr-27 19:33N 48°32' W 122°34'2 0.2
2015-Apr-27 09:33N 48°31' W 122°36'0 0.0
2015-Apr-27 08:33N 48°31' W 122°36'2 0.2
2015-Apr-26 20:33N 48°32' W 122°34'1 1.4
2015-Apr-26 19:33N 48°31' W 122°36'1 0.6
2015-Apr-26 18:33N 48°31' W 122°36'0 0.0
2015-Apr-26 17:33N 48°31' W 122°36'0 0.0
2015-Apr-26 16:33N 48°31' W 122°36'2 1.9
2015-Apr-26 15:33N 48°31' W 122°34'2 2.0
2015-Apr-26 14:33N 48°31' W 122°36'0 0.0
2015-Apr-25 23:14N 48°31' W 122°36'2 3.5
2015-Apr-25 22:33N 48°33' W 122°34'0 0.1
2015-Apr-25 17:33N 48°33' W 122°34'3 2.8
2015-Apr-25 16:33N 48°31' W 122°36'2 0.1
2015-Apr-25 02:33N 48°31' W 122°34'1 0.8
2015-Apr-25 01:33N 48°31' W 122°35'1 0.8
2015-Apr-25 00:33N 48°31' W 122°37'1 1.3
2015-Apr-24 23:34N 48°31' W 122°35'1 0.8
2015-Apr-24 22:33N 48°31' W 122°36'0 0.4
2015-Apr-24 21:33N 48°31' W 122°36'0 0.4
2015-Apr-24 20:33N 48°31' W 122°36'0 0.0
2015-Apr-24 19:33N 48°31' W 122°36'0 0.2
2015-Apr-24 18:33N 48°31' W 122°36'0 0.2
2015-Apr-24 17:33N 48°31' W 122°36'5 5.0
2015-Apr-24 16:33N 48°35' W 122°34'5 4.9
2015-Apr-24 15:33N 48°31' W 122°36'0 0.4
2015-Apr-24 14:33N 48°31' W 122°36'0 0.0
2015-Apr-24 06:06N 48°31' W 122°36'0 0.0
2015-Apr-24 05:33N 48°31' W 122°36'0 0.0
2015-Apr-24 04:33N 48°31' W 122°36'0 0.0
2015-Apr-24 03:33N 48°31' W 122°37'0 0.2
2015-Apr-24 02:33N 48°31' W 122°36'0 0.1
2015-Apr-24 01:33N 48°31' W 122°36'0 0.0
2015-Apr-24 00:33N 48°31' W 122°36'0 0.0
2015-Apr-23 23:33N 48°31' W 122°36'1 0.7
2015-Apr-23 22:33N 48°31' W 122°35'1 0.7
2015-Apr-23 21:33N 48°31' W 122°36'0 0.0
2015-Apr-23 20:33N 48°31' W 122°36'1 1.4
2015-Apr-23 19:33N 48°31' W 122°34'1 1.4
2015-Apr-23 18:33N 48°31' W 122°36'0 0.1
2015-Apr-23 17:33N 48°31' W 122°37'5 5.4
2015-Apr-23 16:33N 48°35' W 122°33'5 4.6
2015-Apr-23 15:34N 48°31' W 122°34'1 1.4
2015-Apr-23 14:33N 48°31' W 122°36'0 0.0
2015-Apr-23 11:33N 48°31' W 122°36'0 0.0
2015-Apr-23 10:33N 48°31' W 122°36'0 0.0
2015-Apr-23 09:33N 48°31' W 122°36'0 0.0
2015-Apr-23 08:33N 48°31' W 122°36'0 0.0
2015-Apr-23 07:33N 48°31' W 122°36'0 0.0
2015-Apr-23 06:33N 48°31' W 122°36'6 6.1
2015-Apr-23 05:32N 48°36' W 122°33'5 5.3
2015-Apr-23 04:33N 48°31' W 122°35'1 1.3
2015-Apr-23 03:34N 48°31' W 122°37'0 0.0
2015-Apr-23 02:34N 48°31' W 122°36'0 0.0
2015-Apr-23 01:33N 48°31' W 122°36'0 0.0
2015-Apr-23 00:34N 48°31' W 122°36'0 0.0
2015-Apr-22 23:34N 48°31' W 122°36'0 0.0
2015-Apr-22 22:34N 48°31' W 122°36'0 0.0
2015-Apr-22 21:34N 48°31' W 122°36'0 0.0
2015-Apr-22 20:33N 48°31' W 122°36'0 0.1
2015-Apr-22 19:33N 48°31' W 122°37'0 0.0
2015-Apr-22 18:34N 48°31' W 122°37'0 0.0
2015-Apr-22 17:34N 48°31' W 122°37'0 0.1
2015-Apr-22 16:33N 48°31' W 122°36'0 0.0
2015-Apr-22 15:33N 48°31' W 122°36'0 0.0
2015-Apr-22 14:33N 48°31' W 122°36'1 1.3
2015-Apr-22 13:33N 48°31' W 122°35'1 0.1
2015-Apr-22 01:26N 48°31' W 122°37'0 0.0
2015-Apr-22 00:33N 48°31' W 122°36'1 1.1
2015-Apr-21 23:33N 48°31' W 122°35'1 0.7
2015-Apr-21 22:33N 48°31' W 122°36'0 0.4
2015-Apr-21 21:33N 48°31' W 122°36'0 0.0
2015-Apr-21 20:33N 48°31' W 122°36'0 0.2
2015-Apr-21 19:33N 48°31' W 122°36'0 0.2
2015-Apr-21 18:33N 48°31' W 122°36'0 0.0
2015-Apr-21 17:33N 48°31' W 122°36'0 0.0
2015-Apr-21 16:33N 48°31' W 122°36'0 0.0
2015-Apr-21 15:33N 48°31' W 122°36'0 0.2
2015-Apr-21 14:34N 48°31' W 122°36'0 0.2
2015-Apr-21 13:34N 48°31' W 122°36'5 5.2
2015-Apr-21 12:32N 48°35' W 122°33'5 5.4
2015-Apr-21 11:33N 48°31' W 122°36'0 0.0
2015-Apr-21 10:33N 48°31' W 122°36'0 0.0
2015-Apr-21 09:33N 48°31' W 122°36'0 0.0
2015-Apr-21 08:33N 48°31' W 122°36'0 0.0
2015-Apr-21 07:33N 48°31' W 122°37'0 0.0
2015-Apr-21 06:33N 48°31' W 122°36'0 0.0
2015-Apr-21 05:33N 48°31' W 122°36'0 0.0
2015-Apr-21 04:33N 48°31' W 122°36'0 0.0
2015-Apr-21 03:33N 48°31' W 122°36'0 0.2
2015-Apr-21 02:34N 48°31' W 122°36'0 0.2
2015-Apr-21 01:33N 48°31' W 122°36'0 0.0
2015-Apr-21 00:34N 48°31' W 122°36'1 0.9
2015-Apr-20 23:33N 48°31' W 122°35'1 0.7
2015-Apr-20 22:33N 48°31' W 122°36'0 0.3
2015-Apr-20 21:33N 48°31' W 122°36'0 0.0
2015-Apr-20 20:33N 48°31' W 122°36'1 1.5
2015-Apr-20 19:33N 48°31' W 122°34'1 1.3
2015-Apr-20 18:33N 48°31' W 122°36'0 0.2
2015-Apr-20 17:34N 48°31' W 122°36'0 0.0
2015-Apr-20 16:34N 48°31' W 122°36'0 0.2
2015-Apr-20 15:33N 48°31' W 122°36'0 0.2
2015-Apr-20 14:33N 48°31' W 122°36'0 0.1
2015-Apr-20 11:31N 48°31' W 122°36'2 2.1
2015-Apr-20 10:34N 48°32' W 122°34'2 2.0
2015-Apr-20 09:34N 48°31' W 122°36'0 0.0
2015-Apr-20 08:33N 48°31' W 122°37'0 0.0
2015-Apr-20 07:34N 48°31' W 122°37'0 0.0
2015-Apr-20 06:34N 48°31' W 122°36'0 0.0
2015-Apr-20 05:33N 48°31' W 122°36'0 0.0
2015-Apr-20 04:32N 48°31' W 122°36'0 0.0
2015-Apr-20 03:33N 48°31' W 122°36'7 6.9
2015-Apr-20 02:33N 48°37' W 122°32'7 7.0
2015-Apr-20 01:33N 48°31' W 122°37'0 0.0
2015-Apr-20 00:33N 48°31' W 122°36'0 0.4
2015-Apr-19 23:33N 48°31' W 122°36'0 0.4
2015-Apr-19 22:32N 48°31' W 122°36'0 0.0
2015-Apr-19 21:33N 48°31' W 122°36'2 1.5
2015-Apr-19 20:33N 48°31' W 122°34'3 3.0
2015-Apr-19 19:33N 48°34' W 122°34'3 3.3
2015-Apr-19 18:33N 48°31' W 122°36'0 0.0
2015-Apr-19 17:33N 48°31' W 122°36'0 0.0
2015-Apr-19 16:33N 48°31' W 122°36'5 4.9
2015-Apr-19 15:33N 48°35' W 122°34'5 4.8
2015-Apr-19 14:33N 48°31' W 122°36'0 0.0
2015-Apr-19 10:33N 48°31' W 122°36'0 0.1
2015-Apr-19 09:33N 48°31' W 122°36'0 0.0
2015-Apr-19 08:33N 48°31' W 122°36'0 0.0
2015-Apr-19 07:33N 48°31' W 122°36'0 0.0
2015-Apr-19 06:33N 48°31' W 122°36'2 1.7
2015-Apr-19 05:33N 48°31' W 122°34'2 1.7
2015-Apr-19 04:33N 48°31' W 122°36'1 1.5
2015-Apr-19 03:34N 48°31' W 122°34'1 1.1
2015-Apr-19 02:33N 48°31' W 122°36'1 0.6
2015-Apr-19 01:34N 48°31' W 122°35'1 0.9
2015-Apr-19 00:33N 48°31' W 122°36'0 0.4
2015-Apr-18 23:33N 48°31' W 122°36'0 0.0
2015-Apr-18 22:33N 48°31' W 122°36'0 0.1
2015-Apr-18 21:33N 48°31' W 122°36'0 0.2
2015-Apr-18 20:33N 48°31' W 122°36'1 1.5
2015-Apr-18 19:33N 48°31' W 122°34'4 3.8
2015-Apr-18 18:33N 48°35' W 122°34'4 4.2
2015-Apr-18 17:33N 48°31' W 122°36'0 0.0
2015-Apr-18 16:33N 48°31' W 122°36'2 1.6
2015-Apr-18 15:33N 48°31' W 122°34'1 1.2
2015-Apr-18 14:33N 48°31' W 122°36'0 0.1
2015-Apr-18 10:33N 48°31' W 122°36'0 0.0
2015-Apr-18 09:33N 48°31' W 122°36'0 0.1
2015-Apr-18 08:33N 48°31' W 122°37'0 0.0
2015-Apr-18 07:33N 48°31' W 122°36'0 0.0
2015-Apr-18 06:33N 48°31' W 122°36'  

Dump ship's entire track history